sensor_id;sensor_type;location;lat;lon;timestamp;temperature;humidity
9849;DHT22;4963;51.444;6.528;2024-03-23T00:53:34;8.50;99.90
9849;DHT22;4963;51.444;6.528;2024-03-23T00:56:00;8.50;99.90
9849;DHT22;4963;51.444;6.528;2024-03-23T00:58:26;8.50;99.90
9849;DHT22;4963;51.444;6.528;2024-03-23T01:00:52;8.50;99.90
9849;DHT22;4963;51.444;6.528;2024-03-23T01:03:19;8.50;99.90
9849;DHT22;4963;51.444;6.528;2024-03-23T01:05:45;8.50;99.90
9849;DHT22;4963;51.444;6.528;2024-03-23T01:08:12;8.40;99.90
9849;DHT22;4963;51.444;6.528;2024-03-23T01:10:39;8.40;99.90
9849;DHT22;4963;51.444;6.528;2024-03-23T01:13:06;8.30;99.90
9849;DHT22;4963;51.444;6.528;2024-03-23T01:15:33;8.30;99.90
9849;DHT22;4963;51.444;6.528;2024-03-23T01:18:01;8.30;99.90
9849;DHT22;4963;51.444;6.528;2024-03-23T01:20:27;8.20;99.90
9849;DHT22;4963;51.444;6.528;2024-03-23T01:22:55;8.20;99.90
9849;DHT22;4963;51.444;6.528;2024-03-23T01:25:21;8.20;99.90
9849;DHT22;4963;51.444;6.528;2024-03-23T01:27:49;8.20;99.90
9849;DHT22;4963;51.444;6.528;2024-03-23T01:30:15;8.10;99.90
9849;DHT22;4963;51.444;6.528;2024-03-23T01:32:42;8.10;99.90
9849;DHT22;4963;51.444;6.528;2024-03-23T01:35:08;8.20;99.90
9849;DHT22;4963;51.444;6.528;2024-03-23T01:37:35;8.00;99.90
9849;DHT22;4963;51.444;6.528;2024-03-23T01:40:01;7.90;99.90
9849;DHT22;4963;51.444;6.528;2024-03-23T01:42:29;7.90;99.90
9849;DHT22;4963;51.444;6.528;2024-03-23T01:44:56;7.90;99.90
9849;DHT22;4963;51.444;6.528;2024-03-23T01:47:23;8.00;99.90
9849;DHT22;4963;51.444;6.528;2024-03-23T01:49:49;8.00;99.90
9849;DHT22;4963;51.444;6.528;2024-03-23T01:52:17;7.80;99.90
9849;DHT22;4963;51.444;6.528;2024-03-23T01:54:43;7.80;99.90
9849;DHT22;4963;51.444;6.528;2024-03-23T01:57:11;7.80;99.90
9849;DHT22;4963;51.444;6.528;2024-03-23T01:59:38;7.90;99.90
9849;DHT22;4963;51.444;6.528;2024-03-23T02:02:07;7.90;99.90
9849;DHT22;4963;51.444;6.528;2024-03-23T02:04:32;7.90;99.90
9849;DHT22;4963;51.444;6.528;2024-03-23T02:07:02;7.90;99.90
9849;DHT22;4963;51.444;6.528;2024-03-23T02:09:29;8.00;99.90
9849;DHT22;4963;51.444;6.528;2024-03-23T02:11:58;8.10;99.90
9849;DHT22;4963;51.444;6.528;2024-03-23T02:14:24;8.20;99.90
9849;DHT22;4963;51.444;6.528;2024-03-23T02:16:51;8.20;99.90
9849;DHT22;4963;51.444;6.528;2024-03-23T02:19:18;8.20;99.90
9849;DHT22;4963;51.444;6.528;2024-03-23T02:21:45;8.30;99.90
9849;DHT22;4963;51.444;6.528;2024-03-23T02:24:14;8.30;99.90
9849;DHT22;4963;51.444;6.528;2024-03-23T02:26:40;8.30;99.90
9849;DHT22;4963;51.444;6.528;2024-03-23T02:29:06;8.40;99.90
9849;DHT22;4963;51.444;6.528;2024-03-23T02:31:34;8.40;99.90
9849;DHT22;4963;51.444;6.528;2024-03-23T02:34:00;8.40;99.90
9849;DHT22;4963;51.444;6.528;2024-03-23T02:36:27;8.40;99.90
9849;DHT22;4963;51.444;6.528;2024-03-23T02:38:53;8.40;99.90
9849;DHT22;4963;51.444;6.528;2024-03-23T02:41:22;8.40;99.90
9849;DHT22;4963;51.444;6.528;2024-03-23T02:43:49;8.40;99.90
9849;DHT22;4963;51.444;6.528;2024-03-23T02:46:16;8.40;99.90
9849;DHT22;4963;51.444;6.528;2024-03-23T02:48:42;8.50;99.90
9849;DHT22;4963;51.444;6.528;2024-03-23T02:51:09;8.50;99.90
9849;DHT22;4963;51.444;6.528;2024-03-23T02:53:35;8.40;99.90
9849;DHT22;4963;51.444;6.528;2024-03-23T02:56:02;8.40;99.90
9849;DHT22;4963;51.444;6.528;2024-03-23T02:58:30;8.40;99.90
9849;DHT22;4963;51.444;6.528;2024-03-23T03:00:57;8.40;99.90
9849;DHT22;4963;51.444;6.528;2024-03-23T03:03:22;8.40;99.90
9849;DHT22;4963;51.444;6.528;2024-03-23T03:05:55;8.30;99.90
9849;DHT22;4963;51.444;6.528;2024-03-23T03:08:21;8.30;99.90
9849;DHT22;4963;51.444;6.528;2024-03-23T03:10:48;8.30;99.90
9849;DHT22;4963;51.444;6.528;2024-03-23T03:13:14;8.30;99.90
9849;DHT22;4963;51.444;6.528;2024-03-23T03:18:46;8.40;99.90
9849;DHT22;4963;51.444;6.528;2024-03-23T03:21:13;8.40;99.90
9849;DHT22;4963;51.444;6.528;2024-03-23T03:23:39;8.40;99.90
9849;DHT22;4963;51.444;6.528;2024-03-23T03:26:07;8.40;99.90
9849;DHT22;4963;51.444;6.528;2024-03-23T03:28:33;8.40;99.90
9849;DHT22;4963;51.444;6.528;2024-03-23T03:31:02;8.40;99.90
9849;DHT22;4963;51.444;6.528;2024-03-23T03:33:28;8.40;99.90
9849;DHT22;4963;51.444;6.528;2024-03-23T03:35:55;8.30;99.90
9849;DHT22;4963;51.444;6.528;2024-03-23T03:38:21;8.40;99.90
9849;DHT22;4963;51.444;6.528;2024-03-23T03:40:48;8.40;99.90
9849;DHT22;4963;51.444;6.528;2024-03-23T03:43:14;8.40;99.90
9849;DHT22;4963;51.444;6.528;2024-03-23T03:45:41;8.40;99.90
9849;DHT22;4963;51.444;6.528;2024-03-23T03:48:08;8.40;99.90
9849;DHT22;4963;51.444;6.528;2024-03-23T03:50:35;8.30;99.90
9849;DHT22;4963;51.444;6.528;2024-03-23T03:53:01;8.30;99.90
9849;DHT22;4963;51.444;6.528;2024-03-23T03:55:28;8.30;99.90
9849;DHT22;4963;51.444;6.528;2024-03-23T03:57:54;8.20;99.90
9849;DHT22;4963;51.444;6.528;2024-03-23T04:00:21;8.10;99.90
9849;DHT22;4963;51.444;6.528;2024-03-23T04:02:47;8.20;99.90
9849;DHT22;4963;51.444;6.528;2024-03-23T04:05:15;8.20;99.90
9849;DHT22;4963;51.444;6.528;2024-03-23T04:07:41;8.20;99.90
9849;DHT22;4963;51.444;6.528;2024-03-23T04:10:09;8.20;99.90
9849;DHT22;4963;51.444;6.528;2024-03-23T04:12:35;8.20;99.90
9849;DHT22;4963;51.444;6.528;2024-03-23T04:15:03;8.20;99.90
9849;DHT22;4963;51.444;6.528;2024-03-23T04:17:30;8.30;99.90
9849;DHT22;4963;51.444;6.528;2024-03-23T04:20:00;8.30;99.90
9849;DHT22;4963;51.444;6.528;2024-03-23T04:22:28;8.30;99.90
9849;DHT22;4963;51.444;6.528;2024-03-23T04:24:55;8.20;99.90
9849;DHT22;4963;51.444;6.528;2024-03-23T04:27:21;8.20;99.90
9849;DHT22;4963;51.444;6.528;2024-03-23T04:29:48;8.10;99.90
9849;DHT22;4963;51.444;6.528;2024-03-23T04:32:14;8.10;99.90
9849;DHT22;4963;51.444;6.528;2024-03-23T04:34:41;8.10;99.90
9849;DHT22;4963;51.444;6.528;2024-03-23T04:37:07;8.00;99.90
9849;DHT22;4963;51.444;6.528;2024-03-23T04:39:36;8.00;99.90
9849;DHT22;4963;51.444;6.528;2024-03-23T04:42:03;8.00;99.90
9849;DHT22;4963;51.444;6.528;2024-03-23T04:44:30;8.00;99.90
9849;DHT22;4963;51.444;6.528;2024-03-23T04:46:57;8.10;99.90
9849;DHT22;4963;51.444;6.528;2024-03-23T04:49:24;8.10;99.90
9849;DHT22;4963;51.444;6.528;2024-03-23T04:51:51;8.20;99.90
9849;DHT22;4963;51.444;6.528;2024-03-23T04:54:18;8.20;99.90
9849;DHT22;4963;51.444;6.528;2024-03-23T04:56:46;8.20;99.90
9849;DHT22;4963;51.444;6.528;2024-03-23T04:59:15;8.20;99.90
9849;DHT22;4963;51.444;6.528;2024-03-23T05:01:41;8.20;99.90
9849;DHT22;4963;51.444;6.528;2024-03-23T05:04:08;8.20;99.90
9849;DHT22;4963;51.444;6.528;2024-03-23T05:06:34;8.20;99.90
9849;DHT22;4963;51.444;6.528;2024-03-23T05:09:01;8.20;99.90
9849;DHT22;4963;51.444;6.528;2024-03-23T05:11:31;8.20;99.90
9849;DHT22;4963;51.444;6.528;2024-03-23T05:14:00;8.20;99.90
9849;DHT22;4963;51.444;6.528;2024-03-23T05:16:25;8.20;99.90
9849;DHT22;4963;51.444;6.528;2024-03-23T05:18:53;8.20;99.90
9849;DHT22;4963;51.444;6.528;2024-03-23T05:21:18;8.30;99.90
9849;DHT22;4963;51.444;6.528;2024-03-23T05:23:45;8.20;99.90
9849;DHT22;4963;51.444;6.528;2024-03-23T05:26:11;8.30;99.90
9849;DHT22;4963;51.444;6.528;2024-03-23T05:28:38;8.30;99.90
9849;DHT22;4963;51.444;6.528;2024-03-23T05:31:05;8.20;99.90
9849;DHT22;4963;51.444;6.528;2024-03-23T05:33:32;8.20;99.90
9849;DHT22;4963;51.444;6.528;2024-03-23T05:35:59;8.20;99.90
9849;DHT22;4963;51.444;6.528;2024-03-23T05:38:26;8.20;99.90
9849;DHT22;4963;51.444;6.528;2024-03-23T05:40:54;8.20;99.90
9849;DHT22;4963;51.444;6.528;2024-03-23T05:43:21;8.20;99.90
9849;DHT22;4963;51.444;6.528;2024-03-23T05:45:53;8.10;99.90
9849;DHT22;4963;51.444;6.528;2024-03-23T05:48:22;8.10;99.90
9849;DHT22;4963;51.444;6.528;2024-03-23T05:50:47;8.00;99.90
9849;DHT22;4963;51.444;6.528;2024-03-23T05:53:15;8.10;99.90
9849;DHT22;4963;51.444;6.528;2024-03-23T05:55:41;8.00;99.90
9849;DHT22;4963;51.444;6.528;2024-03-23T05:58:08;8.00;99.90
9849;DHT22;4963;51.444;6.528;2024-03-23T06:00:35;8.00;99.90
9849;DHT22;4963;51.444;6.528;2024-03-23T06:03:02;8.00;99.90
9849;DHT22;4963;51.444;6.528;2024-03-23T06:05:30;7.90;99.90
9849;DHT22;4963;51.444;6.528;2024-03-23T06:07:56;8.00;99.90
9849;DHT22;4963;51.444;6.528;2024-03-23T06:10:22;8.00;99.90
9849;DHT22;4963;51.444;6.528;2024-03-23T06:12:49;8.00;99.90
9849;DHT22;4963;51.444;6.528;2024-03-23T06:15:17;7.90;99.90
9849;DHT22;4963;51.444;6.528;2024-03-23T06:17:44;7.90;99.90
9849;DHT22;4963;51.444;6.528;2024-03-23T06:20:12;7.90;99.90
9849;DHT22;4963;51.444;6.528;2024-03-23T06:22:41;8.00;99.90
9849;DHT22;4963;51.444;6.528;2024-03-23T06:25:07;8.00;99.90
9849;DHT22;4963;51.444;6.528;2024-03-23T06:27:34;8.00;99.90
9849;DHT22;4963;51.444;6.528;2024-03-23T06:30:00;8.00;99.90
9849;DHT22;4963;51.444;6.528;2024-03-23T06:32:27;8.10;99.90
9849;DHT22;4963;51.444;6.528;2024-03-23T06:34:54;8.00;99.90
9849;DHT22;4963;51.444;6.528;2024-03-23T06:37:21;8.10;99.90
9849;DHT22;4963;51.444;6.528;2024-03-23T06:39:48;8.10;99.90
9849;DHT22;4963;51.444;6.528;2024-03-23T06:42:15;8.20;99.90
9849;DHT22;4963;51.444;6.528;2024-03-23T06:44:41;8.30;99.90
9849;DHT22;4963;51.444;6.528;2024-03-23T06:47:08;8.50;99.90
9849;DHT22;4963;51.444;6.528;2024-03-23T06:49:34;8.70;99.90
9849;DHT22;4963;51.444;6.528;2024-03-23T06:52:00;9.10;99.90
9849;DHT22;4963;51.444;6.528;2024-03-23T06:54:26;9.50;99.90
9849;DHT22;4963;51.444;6.528;2024-03-23T06:56:55;9.90;99.90
9849;DHT22;4963;51.444;6.528;2024-03-23T06:59:21;10.40;99.90
9849;DHT22;4963;51.444;6.528;2024-03-23T07:01:48;10.80;99.90
9849;DHT22;4963;51.444;6.528;2024-03-23T07:04:13;11.20;99.90
9849;DHT22;4963;51.444;6.528;2024-03-23T07:06:43;11.50;99.90
9849;DHT22;4963;51.444;6.528;2024-03-23T07:09:09;12.00;99.90
9849;DHT22;4963;51.444;6.528;2024-03-23T07:11:36;12.30;99.90
9849;DHT22;4963;51.444;6.528;2024-03-23T07:14:03;12.50;99.90
9849;DHT22;4963;51.444;6.528;2024-03-23T07:16:30;12.60;99.90
9849;DHT22;4963;51.444;6.528;2024-03-23T07:18:56;12.80;99.90
9849;DHT22;4963;51.444;6.528;2024-03-23T07:21:24;12.90;99.90
9849;DHT22;4963;51.444;6.528;2024-03-23T07:23:50;13.00;99.90
9849;DHT22;4963;51.444;6.528;2024-03-23T07:26:17;13.20;99.90
9849;DHT22;4963;51.444;6.528;2024-03-23T07:28:44;13.10;99.90
9849;DHT22;4963;51.444;6.528;2024-03-23T07:31:13;13.20;99.90
9849;DHT22;4963;51.444;6.528;2024-03-23T07:33:42;13.20;99.90
9849;DHT22;4963;51.444;6.528;2024-03-23T07:36:09;13.20;99.90
9849;DHT22;4963;51.444;6.528;2024-03-23T07:38:35;13.10;99.90
9849;DHT22;4963;51.444;6.528;2024-03-23T07:41:03;13.10;99.90
9849;DHT22;4963;51.444;6.528;2024-03-23T07:43:29;13.00;99.90
9849;DHT22;4963;51.444;6.528;2024-03-23T07:45:56;12.90;99.90
9849;DHT22;4963;51.444;6.528;2024-03-23T07:48:23;12.90;99.90
9849;DHT22;4963;51.444;6.528;2024-03-23T07:51:00;12.90;99.90
9849;DHT22;4963;51.444;6.528;2024-03-23T07:53:27;12.80;99.90
9849;DHT22;4963;51.444;6.528;2024-03-23T07:55:58;12.70;99.90
9849;DHT22;4963;51.444;6.528;2024-03-23T07:58:24;12.50;99.90
9849;DHT22;4963;51.444;6.528;2024-03-23T08:00:52;12.40;99.90
9849;DHT22;4963;51.444;6.528;2024-03-23T08:03:18;12.40;99.90
9849;DHT22;4963;51.444;6.528;2024-03-23T08:05:47;12.40;99.90
9849;DHT22;4963;51.444;6.528;2024-03-23T08:08:13;12.40;99.90
9849;DHT22;4963;51.444;6.528;2024-03-23T08:10:50;12.40;99.90
9849;DHT22;4963;51.444;6.528;2024-03-23T08:13:16;12.30;99.90
9849;DHT22;4963;51.444;6.528;2024-03-23T08:15:43;12.10;99.90
9849;DHT22;4963;51.444;6.528;2024-03-23T08:18:10;11.50;99.90
9849;DHT22;4963;51.444;6.528;2024-03-23T08:20:37;11.10;99.90
9849;DHT22;4963;51.444;6.528;2024-03-23T08:23:05;10.80;99.90
9849;DHT22;4963;51.444;6.528;2024-03-23T08:25:33;10.50;99.90
9849;DHT22;4963;51.444;6.528;2024-03-23T08:28:00;10.20;99.90
9849;DHT22;4963;51.444;6.528;2024-03-23T08:30:28;10.00;99.90
9849;DHT22;4963;51.444;6.528;2024-03-23T08:32:57;9.90;99.90
9849;DHT22;4963;51.444;6.528;2024-03-23T08:35:24;9.70;99.90
9849;DHT22;4963;51.444;6.528;2024-03-23T08:37:50;9.70;99.90
9849;DHT22;4963;51.444;6.528;2024-03-23T08:40:18;9.60;99.90
9849;DHT22;4963;51.444;6.528;2024-03-23T08:42:46;9.80;99.90
9849;DHT22;4963;51.444;6.528;2024-03-23T08:45:13;10.20;99.90
9849;DHT22;4963;51.444;6.528;2024-03-23T08:47:38;10.80;99.90
9849;DHT22;4963;51.444;6.528;2024-03-23T08:50:06;11.30;99.90
9849;DHT22;4963;51.444;6.528;2024-03-23T08:52:32;11.70;99.90
9849;DHT22;4963;51.444;6.528;2024-03-23T08:54:59;12.00;99.90
9849;DHT22;4963;51.444;6.528;2024-03-23T08:57:26;12.20;99.90
9849;DHT22;4963;51.444;6.528;2024-03-23T08:59:53;12.30;99.90
9849;DHT22;4963;51.444;6.528;2024-03-23T09:02:19;12.50;99.90
9849;DHT22;4963;51.444;6.528;2024-03-23T09:04:46;12.60;99.90
9849;DHT22;4963;51.444;6.528;2024-03-23T09:07:11;12.70;99.90
9849;DHT22;4963;51.444;6.528;2024-03-23T09:09:39;12.60;99.90
9849;DHT22;4963;51.444;6.528;2024-03-23T09:12:05;12.40;99.90
9849;DHT22;4963;51.444;6.528;2024-03-23T09:14:34;12.30;99.90
9849;DHT22;4963;51.444;6.528;2024-03-23T09:17:00;12.20;99.90
9849;DHT22;4963;51.444;6.528;2024-03-23T09:19:28;12.10;99.90
9849;DHT22;4963;51.444;6.528;2024-03-23T09:21:54;12.10;99.90
9849;DHT22;4963;51.444;6.528;2024-03-23T09:24:21;12.00;99.90
9849;DHT22;4963;51.444;6.528;2024-03-23T09:26:47;11.80;99.90
9849;DHT22;4963;51.444;6.528;2024-03-23T09:29:14;11.60;99.90
9849;DHT22;4963;51.444;6.528;2024-03-23T09:31:41;11.40;99.90
9849;DHT22;4963;51.444;6.528;2024-03-23T09:34:08;11.20;99.90
9849;DHT22;4963;51.444;6.528;2024-03-23T09:36:34;11.10;99.90
9849;DHT22;4963;51.444;6.528;2024-03-23T09:39:01;10.90;99.90
9849;DHT22;4963;51.444;6.528;2024-03-23T09:41:27;10.80;99.90
9849;DHT22;4963;51.444;6.528;2024-03-23T09:43:53;10.70;99.90
9849;DHT22;4963;51.444;6.528;2024-03-23T09:46:20;10.70;99.90
9849;DHT22;4963;51.444;6.528;2024-03-23T09:48:48;10.60;99.90
9849;DHT22;4963;51.444;6.528;2024-03-23T09:51:14;10.50;99.90
9849;DHT22;4963;51.444;6.528;2024-03-23T09:53:41;10.50;99.90
9849;DHT22;4963;51.444;6.528;2024-03-23T09:56:08;10.40;99.90
9849;DHT22;4963;51.444;6.528;2024-03-23T09:58:36;10.40;99.90
9849;DHT22;4963;51.444;6.528;2024-03-23T10:01:02;10.50;99.90
9849;DHT22;4963;51.444;6.528;2024-03-23T10:03:30;10.50;99.90
9849;DHT22;4963;51.444;6.528;2024-03-23T10:06:04;10.60;99.90
9849;DHT22;4963;51.444;6.528;2024-03-23T10:08:31;10.70;99.90
9849;DHT22;4963;51.444;6.528;2024-03-23T10:11:12;10.70;99.90
9849;DHT22;4963;51.444;6.528;2024-03-23T10:13:42;10.60;99.90
9849;DHT22;4963;51.444;6.528;2024-03-23T10:16:08;10.60;99.90
9849;DHT22;4963;51.444;6.528;2024-03-23T10:18:39;10.40;99.90
9849;DHT22;4963;51.444;6.528;2024-03-23T10:21:10;10.10;99.90
9849;DHT22;4963;51.444;6.528;2024-03-23T10:23:38;9.60;99.90
9849;DHT22;4963;51.444;6.528;2024-03-23T10:26:18;9.20;99.90
9849;DHT22;4963;51.444;6.528;2024-03-23T10:28:54;8.90;99.90
9849;DHT22;4963;51.444;6.528;2024-03-23T10:31:20;8.80;99.90
9849;DHT22;4963;51.444;6.528;2024-03-23T10:33:47;8.70;99.90
9849;DHT22;4963;51.444;6.528;2024-03-23T10:36:15;8.60;99.90
9849;DHT22;4963;51.444;6.528;2024-03-23T10:38:43;8.50;99.90
9849;DHT22;4963;51.444;6.528;2024-03-23T10:41:09;8.40;99.90
9849;DHT22;4963;51.444;6.528;2024-03-23T10:43:37;8.30;99.90
9849;DHT22;4963;51.444;6.528;2024-03-23T10:46:03;8.40;99.90
9849;DHT22;4963;51.444;6.528;2024-03-23T10:48:30;8.30;99.90
9849;DHT22;4963;51.444;6.528;2024-03-23T10:50:58;8.40;99.90
9849;DHT22;4963;51.444;6.528;2024-03-23T10:53:27;8.50;99.90
9849;DHT22;4963;51.444;6.528;2024-03-23T10:55:55;8.50;99.90
9849;DHT22;4963;51.444;6.528;2024-03-23T10:58:24;8.50;99.90
9849;DHT22;4963;51.444;6.528;2024-03-23T11:00:52;8.50;99.90
9849;DHT22;4963;51.444;6.528;2024-03-23T11:03:36;8.50;99.90
9849;DHT22;4963;51.444;6.528;2024-03-23T11:06:03;8.70;99.90
9849;DHT22;4963;51.444;6.528;2024-03-23T11:08:33;8.80;99.90
9849;DHT22;4963;51.444;6.528;2024-03-23T11:11:13;8.90;99.90
9849;DHT22;4963;51.444;6.528;2024-03-23T11:13:40;9.10;99.90
9849;DHT22;4963;51.444;6.528;2024-03-23T11:16:14;9.10;99.90
9849;DHT22;4963;51.444;6.528;2024-03-23T11:18:43;9.30;99.90
9849;DHT22;4963;51.444;6.528;2024-03-23T11:21:18;9.30;99.90
9849;DHT22;4963;51.444;6.528;2024-03-23T11:24:16;9.40;99.90
9849;DHT22;4963;51.444;6.528;2024-03-23T11:26:44;9.50;99.90
9849;DHT22;4963;51.444;6.528;2024-03-23T11:29:11;9.50;99.90
9849;DHT22;4963;51.444;6.528;2024-03-23T11:31:38;9.60;99.90
9849;DHT22;4963;51.444;6.528;2024-03-23T11:34:05;9.60;99.90
9849;DHT22;4963;51.444;6.528;2024-03-23T11:36:32;9.60;99.90
9849;DHT22;4963;51.444;6.528;2024-03-23T11:38:58;9.60;99.90
9849;DHT22;4963;51.444;6.528;2024-03-23T11:41:26;9.60;99.90
9849;DHT22;4963;51.444;6.528;2024-03-23T11:43:52;9.50;99.90
9849;DHT22;4963;51.444;6.528;2024-03-23T11:46:22;9.40;99.90
9849;DHT22;4963;51.444;6.528;2024-03-23T11:48:49;9.40;99.90
9849;DHT22;4963;51.444;6.528;2024-03-23T11:51:18;9.40;99.90
9849;DHT22;4963;51.444;6.528;2024-03-23T11:53:44;9.40;99.90
9849;DHT22;4963;51.444;6.528;2024-03-23T11:56:12;9.50;99.90
9849;DHT22;4963;51.444;6.528;2024-03-23T11:58:39;9.60;99.90
9849;DHT22;4963;51.444;6.528;2024-03-23T12:01:10;9.60;99.90
9849;DHT22;4963;51.444;6.528;2024-03-23T12:03:36;9.60;99.90
9849;DHT22;4963;51.444;6.528;2024-03-23T12:06:04;9.60;99.90
9849;DHT22;4963;51.444;6.528;2024-03-23T12:08:31;9.60;99.90
9849;DHT22;4963;51.444;6.528;2024-03-23T12:11:06;9.60;99.90
9849;DHT22;4963;51.444;6.528;2024-03-23T12:13:32;9.60;99.90
9849;DHT22;4963;51.444;6.528;2024-03-23T12:16:11;9.60;99.90
9849;DHT22;4963;51.444;6.528;2024-03-23T12:18:37;9.60;99.90
9849;DHT22;4963;51.444;6.528;2024-03-23T12:21:05;9.60;99.90
9849;DHT22;4963;51.444;6.528;2024-03-23T12:23:31;9.70;99.90
9849;DHT22;4963;51.444;6.528;2024-03-23T12:25:59;9.90;99.90
9849;DHT22;4963;51.444;6.528;2024-03-23T12:28:24;10.00;99.90
9849;DHT22;4963;51.444;6.528;2024-03-23T12:30:52;10.00;99.90
9849;DHT22;4963;51.444;6.528;2024-03-23T12:33:21;9.90;99.90
9849;DHT22;4963;51.444;6.528;2024-03-23T12:35:48;9.70;99.90
9849;DHT22;4963;51.444;6.528;2024-03-23T12:38:14;9.40;99.90
9849;DHT22;4963;51.444;6.528;2024-03-23T12:40:41;9.20;99.90
9849;DHT22;4963;51.444;6.528;2024-03-23T12:43:07;9.10;99.90
9849;DHT22;4963;51.444;6.528;2024-03-23T12:45:34;9.10;99.90
9849;DHT22;4963;51.444;6.528;2024-03-23T12:48:00;9.10;99.90
9849;DHT22;4963;51.444;6.528;2024-03-23T12:50:28;9.10;99.90
9849;DHT22;4963;51.444;6.528;2024-03-23T12:52:54;9.40;99.90
9849;DHT22;4963;51.444;6.528;2024-03-23T12:55:22;9.60;99.90
9849;DHT22;4963;51.444;6.528;2024-03-23T12:57:48;9.70;99.90
9849;DHT22;4963;51.444;6.528;2024-03-23T13:00:15;9.90;99.90
9849;DHT22;4963;51.444;6.528;2024-03-23T13:02:42;10.10;99.90
9849;DHT22;4963;51.444;6.528;2024-03-23T13:05:09;10.20;99.90
9849;DHT22;4963;51.444;6.528;2024-03-23T13:07:36;10.30;99.90
9849;DHT22;4963;51.444;6.528;2024-03-23T13:10:04;10.30;99.90
9849;DHT22;4963;51.444;6.528;2024-03-23T13:12:31;10.30;99.90
9849;DHT22;4963;51.444;6.528;2024-03-23T13:14:58;10.10;99.90
9849;DHT22;4963;51.444;6.528;2024-03-23T13:17:24;10.00;99.90
9849;DHT22;4963;51.444;6.528;2024-03-23T13:19:52;9.90;99.90
9849;DHT22;4963;51.444;6.528;2024-03-23T13:22:18;9.70;99.90
9849;DHT22;4963;51.444;6.528;2024-03-23T13:24:48;9.50;99.70
9849;DHT22;4963;51.444;6.528;2024-03-23T13:27:14;9.40;99.00
9849;DHT22;4963;51.444;6.528;2024-03-23T13:29:41;9.40;98.90
9849;DHT22;4963;51.444;6.528;2024-03-23T13:32:07;9.50;98.80
9849;DHT22;4963;51.444;6.528;2024-03-23T13:34:34;9.70;98.60
9849;DHT22;4963;51.444;6.528;2024-03-23T13:37:00;9.90;97.10
9849;DHT22;4963;51.444;6.528;2024-03-23T13:39:27;10.00;97.00
9849;DHT22;4963;51.444;6.528;2024-03-23T13:41:55;10.10;96.40
9849;DHT22;4963;51.444;6.528;2024-03-23T13:44:22;10.20;95.90
9849;DHT22;4963;51.444;6.528;2024-03-23T13:46:47;10.10;96.10
9849;DHT22;4963;51.444;6.528;2024-03-23T13:49:25;10.10;96.40
9849;DHT22;4963;51.444;6.528;2024-03-23T13:51:53;10.10;97.10
9849;DHT22;4963;51.444;6.528;2024-03-23T13:54:21;10.10;97.20
9849;DHT22;4963;51.444;6.528;2024-03-23T13:56:48;10.00;97.00
9849;DHT22;4963;51.444;6.528;2024-03-23T13:59:17;9.90;97.70
9849;DHT22;4963;51.444;6.528;2024-03-23T14:01:43;9.80;98.40
9849;DHT22;4963;51.444;6.528;2024-03-23T14:04:11;9.80;98.90
9849;DHT22;4963;51.444;6.528;2024-03-23T14:06:37;9.80;98.50
9849;DHT22;4963;51.444;6.528;2024-03-23T14:09:04;9.80;98.90
9849;DHT22;4963;51.444;6.528;2024-03-23T14:11:30;9.90;99.30
9849;DHT22;4963;51.444;6.528;2024-03-23T14:13:57;10.00;97.20
9849;DHT22;4963;51.444;6.528;2024-03-23T14:16:24;10.00;97.60
9849;DHT22;4963;51.444;6.528;2024-03-23T14:18:51;10.10;98.10
9849;DHT22;4963;51.444;6.528;2024-03-23T14:21:17;10.30;98.00
9849;DHT22;4963;51.444;6.528;2024-03-23T14:23:44;10.40;97.40
9849;DHT22;4963;51.444;6.528;2024-03-23T14:26:10;10.40;95.50
9849;DHT22;4963;51.444;6.528;2024-03-23T14:28:37;10.30;95.30
9849;DHT22;4963;51.444;6.528;2024-03-23T14:31:03;10.10;95.30
9849;DHT22;4963;51.444;6.528;2024-03-23T14:33:38;10.00;95.70
9849;DHT22;4963;51.444;6.528;2024-03-23T14:36:07;9.90;96.30
9849;DHT22;4963;51.444;6.528;2024-03-23T14:38:34;9.80;97.10
9849;DHT22;4963;51.444;6.528;2024-03-23T14:41:00;9.80;96.40
9849;DHT22;4963;51.444;6.528;2024-03-23T14:43:28;9.70;97.00
9849;DHT22;4963;51.444;6.528;2024-03-23T14:46:08;9.80;97.00
9849;DHT22;4963;51.444;6.528;2024-03-23T14:48:36;9.80;97.10
9849;DHT22;4963;51.444;6.528;2024-03-23T14:51:03;10.00;97.00
9849;DHT22;4963;51.444;6.528;2024-03-23T14:53:31;10.10;97.10
9849;DHT22;4963;51.444;6.528;2024-03-23T14:55:57;10.20;96.90
9849;DHT22;4963;51.444;6.528;2024-03-23T14:58:27;10.20;97.30
9849;DHT22;4963;51.444;6.528;2024-03-23T15:00:53;10.20;97.10
9849;DHT22;4963;51.444;6.528;2024-03-23T15:03:27;10.20;97.10
9849;DHT22;4963;51.444;6.528;2024-03-23T15:05:55;10.20;97.10
9849;DHT22;4963;51.444;6.528;2024-03-23T15:08:22;10.10;97.20
9849;DHT22;4963;51.444;6.528;2024-03-23T15:10:48;10.00;96.80
9849;DHT22;4963;51.444;6.528;2024-03-23T15:13:15;10.00;96.60
9849;DHT22;4963;51.444;6.528;2024-03-23T15:15:42;10.00;96.60
9849;DHT22;4963;51.444;6.528;2024-03-23T15:18:10;9.90;97.10
9849;DHT22;4963;51.444;6.528;2024-03-23T15:20:38;9.90;97.30
9849;DHT22;4963;51.444;6.528;2024-03-23T15:23:07;9.90;97.20
9849;DHT22;4963;51.444;6.528;2024-03-23T15:25:33;9.90;97.20
9849;DHT22;4963;51.444;6.528;2024-03-23T15:28:00;9.90;97.30
9849;DHT22;4963;51.444;6.528;2024-03-23T15:30:27;9.80;97.60
9849;DHT22;4963;51.444;6.528;2024-03-23T15:32:55;9.80;97.80
9849;DHT22;4963;51.444;6.528;2024-03-23T15:35:21;9.80;97.70
9849;DHT22;4963;51.444;6.528;2024-03-23T15:37:49;9.80;98.10
9849;DHT22;4963;51.444;6.528;2024-03-23T15:40:16;9.70;97.60
9849;DHT22;4963;51.444;6.528;2024-03-23T15:42:44;9.70;97.20
9849;DHT22;4963;51.444;6.528;2024-03-23T15:45:12;9.60;97.50
9849;DHT22;4963;51.444;6.528;2024-03-23T15:47:39;9.50;97.70
9849;DHT22;4963;51.444;6.528;2024-03-23T15:50:06;9.50;98.00
9849;DHT22;4963;51.444;6.528;2024-03-23T15:52:35;9.50;97.70
9849;DHT22;4963;51.444;6.528;2024-03-23T15:55:02;9.50;98.50
9849;DHT22;4963;51.444;6.528;2024-03-23T15:57:33;9.60;98.20
9849;DHT22;4963;51.444;6.528;2024-03-23T15:59:59;9.60;97.70
9849;DHT22;4963;51.444;6.528;2024-03-23T16:02:26;9.60;97.90
9849;DHT22;4963;51.444;6.528;2024-03-23T16:04:53;9.70;97.60
9849;DHT22;4963;51.444;6.528;2024-03-23T16:07:20;9.70;97.50
9849;DHT22;4963;51.444;6.528;2024-03-23T16:09:46;9.70;97.30
9849;DHT22;4963;51.444;6.528;2024-03-23T16:12:12;9.70;97.00
9849;DHT22;4963;51.444;6.528;2024-03-23T16:14:42;9.70;96.70
9849;DHT22;4963;51.444;6.528;2024-03-23T16:17:09;9.60;96.50
9849;DHT22;4963;51.444;6.528;2024-03-23T16:19:35;9.60;96.80
9849;DHT22;4963;51.444;6.528;2024-03-23T16:22:02;9.50;96.70
9849;DHT22;4963;51.444;6.528;2024-03-23T16:24:28;9.50;96.80
9849;DHT22;4963;51.444;6.528;2024-03-23T16:26:55;9.50;97.50
9849;DHT22;4963;51.444;6.528;2024-03-23T16:29:21;9.50;97.50
9849;DHT22;4963;51.444;6.528;2024-03-23T16:31:49;9.50;97.90
9849;DHT22;4963;51.444;6.528;2024-03-23T16:34:15;9.50;98.20
9849;DHT22;4963;51.444;6.528;2024-03-23T16:36:42;9.40;98.50
9849;DHT22;4963;51.444;6.528;2024-03-23T16:39:08;9.30;99.20
9849;DHT22;4963;51.444;6.528;2024-03-23T16:41:35;9.20;99.00
9849;DHT22;4963;51.444;6.528;2024-03-23T16:44:01;9.10;99.00
9849;DHT22;4963;51.444;6.528;2024-03-23T16:46:28;9.00;99.20
9849;DHT22;4963;51.444;6.528;2024-03-23T16:48:55;9.00;99.90
9849;DHT22;4963;51.444;6.528;2024-03-23T16:51:22;8.90;99.90
9849;DHT22;4963;51.444;6.528;2024-03-23T16:53:48;8.80;99.90
9849;DHT22;4963;51.444;6.528;2024-03-23T16:56:15;8.80;99.90
9849;DHT22;4963;51.444;6.528;2024-03-23T16:58:41;8.80;99.90
9849;DHT22;4963;51.444;6.528;2024-03-23T17:01:09;8.70;99.90
9849;DHT22;4963;51.444;6.528;2024-03-23T17:03:37;8.70;99.90
9849;DHT22;4963;51.444;6.528;2024-03-23T17:06:06;8.60;99.90
9849;DHT22;4963;51.444;6.528;2024-03-23T17:08:32;8.60;99.90